Time;durP1;ratioP1;P1;durP2;ratioP2;P2;SDS_P1;SDS_P2;PMS_P1;PMS_P2;Temp;Humidity;BMP_temperature;BMP_pressure;BME280_temperature;BME280_humidity;BME280_pressure;Samples;Min_cycle;Max_cycle;Signal;HPM_P1;HPM_P2
2021/08/22 00:00:30;;;;;;;7.40;5.30;;;;;;;17.83;91.06;99028.22;5023635;28;20461;-80
2021/08/22 00:02:57;;;;;;;8.13;5.30;;;;;;;17.75;91.55;99041.44;5024338;28;20053;-80
2021/08/22 00:05:25;;;;;;;8.57;4.63;;;;;;;17.85;91.46;99070.06;5031822;28;20044;-80
2021/08/22 00:07:52;;;;;;;6.72;4.60;;;;;;;17.96;90.16;99060.19;5016428;28;20140;-81
2021/08/22 00:10:19;;;;;;;6.40;4.75;;;;;;;17.99;90.57;99069.88;5012270;28;20049;-80
2021/08/22 00:12:46;;;;;;;8.10;4.90;;;;;;;17.90;91.35;99085.91;5015943;28;20460;-80
2021/08/22 00:15:14;;;;;;;7.07;4.68;;;;;;;17.90;91.36;99082.28;5029413;28;20525;-81
2021/08/22 00:17:41;;;;;;;7.38;5.30;;;;;;;17.83;91.17;99129.13;5031197;28;20054;-80
2021/08/22 00:20:08;;;;;;;9.10;5.53;;;;;;;17.90;91.36;99162.03;5019980;28;20485;-81
2021/08/22 00:22:37;;;;;;;7.95;6.10;;;;;;;17.97;91.94;99171.88;5016414;28;20085;-80
2021/08/22 00:25:05;;;;;;;10.38;6.85;;;;;;;18.13;90.99;99173.13;5014545;28;20054;-80
2021/08/22 00:27:31;;;;;;;6.80;5.00;;;;;;;18.25;90.33;99195.19;5029660;28;20046;-81
2021/08/22 00:29:58;;;;;;;9.60;4.57;;;;;;;18.46;88.78;99229.59;5031326;28;20073;-81
2021/08/22 00:32:25;;;;;;;8.75;3.85;;;;;;;18.42;90.62;99225.63;5031125;28;20105;-81
2021/08/22 00:34:52;;;;;;;16.15;5.38;;;;;;;18.32;94.21;99223.47;5029129;28;20065;-82
2021/08/22 00:37:20;;;;;;;7.20;3.33;;;;;;;17.99;88.35;99200.00;5011774;28;20414;-83
2021/08/22 00:39:52;;;;;;;6.90;2.97;;;;;;;17.80;88.77;99201.06;5031070;28;20441;-86
2021/08/22 00:42:18;;;;;;;3.63;2.22;;;;;;;17.75;87.57;99200.91;5020436;28;20057;-86
2021/08/22 00:44:45;;;;;;;3.70;2.15;;;;;;;17.40;88.17;99180.38;5015286;28;20096;-84
2021/08/22 00:47:12;;;;;;;9.20;1.98;;;;;;;17.26;88.71;99165.16;5018260;28;20046;-85
2021/08/22 00:49:44;;;;;;;2.17;1.70;;;;;;;17.26;87.84;99176.97;5028610;28;20049;-85
2021/08/22 00:52:13;;;;;;;5.75;2.38;;;;;;;17.17;89.31;99192.06;5034391;28;20123;-84
2021/08/22 00:55:00;;;;;;;3.15;2.03;;;;;;;17.14;90.89;99215.31;5038241;28;20398;-83
2021/08/22 00:57:29;;;;;;;4.60;2.58;;;;;;;17.16;94.35;99229.69;5052943;28;20053;-83
2021/08/22 01:00:00;;;;;;;3.97;2.20;;;;;;;17.05;94.37;99232.34;5015293;28;20058;-83
2021/08/22 01:02:30;;;;;;;6.60;2.65;;;;;;;17.07;95.37;99220.06;5014891;28;20046;-83
2021/08/22 01:05:12;;;;;;;3.10;2.60;;;;;;;17.03;95.44;99216.09;5016742;28;20137;-83
2021/08/22 01:07:49;;;;;;;4.40;2.30;;;;;;;17.09;94.53;99206.13;5031403;28;20100;-83
2021/08/22 01:10:20;;;;;;;7.25;2.50;;;;;;;17.17;95.23;99219.53;5033527;28;20061;-83
2021/08/22 01:13:04;;;;;;;3.83;2.45;;;;;;;16.94;93.58;99199.06;5034545;28;20049;-83
2021/08/22 01:15:37;;;;;;;4.35;2.45;;;;;;;16.83;95.24;99177.81;5034179;28;20053;-83
2021/08/22 01:18:07;;;;;;;6.85;2.70;;;;;;;16.97;96.84;99173.06;5034162;28;20064;-83
2021/08/22 01:20:44;;;;;;;3.92;2.22;;;;;;;16.88;94.97;99153.28;5025456;28;20046;-83
2021/08/22 01:23:13;;;;;;;4.90;2.65;;;;;;;16.98;97.18;99148.13;5016359;28;20121;-83
2021/08/22 01:25:43;;;;;;;6.30;2.55;;;;;;;16.97;97.12;99120.88;5032776;28;20057;-82
2021/08/22 01:28:12;;;;;;;9.63;2.80;;;;;;;16.88;96.19;99120.34;5014221;28;20509;-83
2021/08/22 01:30:44;;;;;;;4.87;2.33;;;;;;;16.94;95.33;99115.84;5033221;28;20053;-83
2021/08/22 01:33:16;;;;;;;5.20;2.53;;;;;;;16.97;95.33;99112.66;5019946;28;20054;-83
2021/08/22 01:35:43;;;;;;;11.07;2.38;;;;;;;16.74;95.76;99083.06;5012839;28;20046;-82
2021/08/22 01:38:11;;;;;;;7.30;2.42;;;;;;;16.72;96.61;99102.50;5014236;28;20049;-82
2021/08/22 01:40:39;;;;;;;6.18;2.30;;;;;;;16.54;97.21;99086.84;5015672;28;20065;-83
2021/08/22 01:43:06;;;;;;;5.13;2.35;;;;;;;16.50;98.30;99085.63;5032851;28;20386;-83
2021/08/22 01:45:34;;;;;;;3.75;2.22;;;;;;;16.46;98.18;99067.94;5033137;28;20107;-83
2021/08/22 01:48:01;;;;;;;4.15;2.38;;;;;;;16.31;98.15;99043.59;5030194;28;20111;-83
2021/08/22 01:50:29;;;;;;;4.30;2.20;;;;;;;16.28;98.54;99031.16;5029041;28;20049;-83
2021/08/22 01:53:00;;;;;;;5.55;2.75;;;;;;;16.23;99.33;99028.28;5014465;28;20054;-83
2021/08/22 01:55:29;;;;;;;4.85;2.42;;;;;;;16.23;99.42;99028.28;5013536;28;20300;-83
2021/08/22 01:57:56;;;;;;;4.63;2.38;;;;;;;16.23;100.00;99021.97;5011725;28;20053;-82
2021/08/22 02:00:25;;;;;;;6.57;2.38;;;;;;;16.37;100.00;99020.75;5023156;28;20080;-83
2021/08/22 02:03:17;;;;;;;6.67;2.33;;;;;;;16.30;100.00;99017.22;5048057;28;20076;-83
2021/08/22 02:06:05;;;;;;;4.63;2.05;;;;;;;16.34;100.00;99017.63;5040661;28;20300;-83
2021/08/22 02:08:35;;;;;;;3.03;2.13;;;;;;;16.48;100.00;99024.63;5013686;28;20124;-83
2021/08/22 02:11:04;;;;;;;;;;;;;;;16.50;99.03;99036.25;5012949;28;20049;-83
2021/08/22 02:13:36;;;;;;;3.38;2.08;;;;;;;16.43;97.74;99014.34;5013192;28;19925;-83
2021/08/22 02:16:06;;;;;;;3.88;2.60;;;;;;;16.48;99.15;99021.91;5014981;28;20057;-83
2021/08/22 02:18:36;;;;;;;7.13;2.88;;;;;;;16.39;99.73;99032.31;5051040;28;20048;-83
2021/08/22 02:21:04;;;;;;;7.75;2.38;;;;;;;16.39;100.00;99043.28;5053119;28;20056;-83
2021/08/22 02:23:31;;;;;;;9.10;3.03;;;;;;;16.33;100.00;99040.63;5015352;28;20075;-83
2021/08/22 02:25:59;;;;;;;5.97;2.97;;;;;;;16.38;100.00;99051.75;5013298;28;20054;-83
2021/08/22 02:28:25;;;;;;;7.00;2.47;;;;;;;16.31;100.00;99034.53;5013499;28;20445;-82
2021/08/22 02:30:52;;;;;;;7.97;3.25;;;;;;;16.16;100.00;99032.97;5013264;28;20124;-83
2021/08/22 02:33:19;;;;;;;3.97;2.83;;;;;;;16.33;100.00;99057.09;5022939;28;20051;-84
2021/08/22 02:35:46;;;;;;;4.25;2.83;;;;;;;16.19;100.00;99027.03;5013670;28;20054;-83
2021/08/22 02:38:15;;;;;;;6.65;2.78;;;;;;;16.26;100.00;99037.97;5019651;28;20076;-83
2021/08/22 02:40:41;;;;;;;4.57;2.55;;;;;;;16.31;100.00;99035.38;5032744;28;20486;-83
2021/08/22 02:43:08;;;;;;;6.40;3.03;;;;;;;16.37;100.00;99044.59;5031652;28;20053;-83
2021/08/22 02:45:35;;;;;;;4.53;2.75;;;;;;;16.40;100.00;99044.97;5012989;28;20057;-84
2021/08/22 02:48:02;;;;;;;4.82;2.95;;;;;;;16.36;100.00;99038.25;5012826;28;20046;-83
2021/08/22 02:50:30;;;;;;;6.90;2.88;;;;;;;16.32;100.00;99033.47;5038192;28;20061;-83
2021/08/22 02:52:57;;;;;;;6.75;3.15;;;;;;;16.49;99.83;99050.19;5032944;28;20107;-83
2021/08/22 02:55:25;;;;;;;3.83;2.60;;;;;;;16.40;98.64;99041.41;5031720;28;20060;-83
2021/08/22 02:57:52;;;;;;;5.10;2.58;;;;;;;16.39;99.77;99042.47;5032534;28;20123;-84
2021/08/22 03:00:20;;;;;;;5.70;2.80;;;;;;;16.49;99.25;99048.28;5022247;28;20053;-83
2021/08/22 03:02:46;;;;;;;8.55;3.47;;;;;;;16.66;97.68;99037.53;5012007;28;20460;-83
2021/08/22 03:05:13;;;;;;;3.90;2.38;;;;;;;16.56;97.28;99038.09;5020667;28;20509;-84
2021/08/22 03:07:40;;;;;;;6.85;2.47;;;;;;;16.51;97.42;99028.84;5032270;28;20119;-84
2021/08/22 03:10:08;;;;;;;4.22;2.55;;;;;;;16.28;99.24;99022.94;5018192;28;20149;-83
2021/08/22 03:12:36;;;;;;;4.28;2.55;;;;;;;16.20;99.38;99025.13;5014273;28;20461;-83
2021/08/22 03:15:05;;;;;;;4.55;2.20;;;;;;;16.18;99.94;99030.84;5012206;28;20127;-83
2021/08/22 03:17:32;;;;;;;4.22;2.78;;;;;;;16.14;99.94;99026.03;5012178;28;20057;-83
2021/08/22 03:20:02;;;;;;;9.85;2.92;;;;;;;16.33;98.98;99043.38;5012393;28;20375;-83
2021/08/22 03:22:28;;;;;;;;;;;;;;;16.32;100.00;99055.41;5014018;28;20394;-83
2021/08/22 03:24:55;;;;;;;5.05;2.28;;;;;;;16.17;100.00;99056.59;5012076;28;20365;-83
2021/08/22 03:27:22;;;;;;;4.03;2.35;;;;;;;16.28;100.00;99036.66;5016060;28;20046;-83
2021/08/22 03:29:50;;;;;;;4.30;2.72;;;;;;;16.26;99.65;99036.03;5012374;28;20041;-83
2021/08/22 03:32:17;;;;;;;4.35;2.53;;;;;;;16.26;100.00;99060.72;5014692;28;20573;-82
2021/08/22 03:34:44;;;;;;;6.95;2.63;;;;;;;16.23;100.00;99052.13;5032002;28;20092;-83
2021/08/22 03:37:11;;;;;;;3.58;2.50;;;;;;;16.21;100.00;99046.88;5031281;28;20057;-83
2021/08/22 03:39:38;;;;;;;4.63;2.78;;;;;;;16.29;100.00;99062.19;5044538;28;20110;-83
2021/08/22 03:42:05;;;;;;;6.88;3.58;;;;;;;16.31;100.00;99072.94;5051810;28;20127;-83
2021/08/22 03:44:32;;;;;;;4.70;2.70;;;;;;;16.17;100.00;99055.75;5031250;28;20054;-83
2021/08/22 03:47:00;;;;;;;5.32;2.42;;;;;;;16.31;100.00;99086.66;5012246;28;20390;-83
2021/08/22 03:49:27;;;;;;;4.25;2.47;;;;;;;16.33;100.00;99090.00;5012476;28;20317;-83
2021/08/22 03:51:54;;;;;;;4.88;2.55;;;;;;;16.34;99.93;99087.03;5012006;28;20112;-83
2021/08/22 03:54:20;;;;;;;5.68;2.88;;;;;;;16.49;99.23;99094.94;5013046;28;20448;-83
2021/08/22 03:56:47;;;;;;;10.68;3.10;;;;;;;16.42;98.71;99086.78;5032035;28;20061;-83
2021/08/22 03:59:14;;;;;;;5.30;2.50;;;;;;;16.44;98.65;99092.84;5031783;28;20543;-84
2021/08/22 04:01:41;;;;;;;3.97;2.70;;;;;;;16.29;100.00;99097.84;5019784;28;20045;-83
2021/08/22 04:04:09;;;;;;;5.47;2.20;;;;;;;16.18;100.00;99080.19;5031583;28;20045;-84
2021/08/22 04:06:37;;;;;;;6.68;2.53;;;;;;;16.15;100.00;99086.13;5030719;28;20465;-84
2021/08/22 04:09:07;;;;;;;5.38;2.70;;;;;;;16.17;100.00;99097.72;5031580;28;20548;-84
2021/08/22 04:11:34;;;;;;;12.53;3.47;;;;;;;16.19;99.59;99075.56;5040055;28;20107;-83
2021/08/22 04:14:02;;;;;;;4.70;2.65;;;;;;;16.07;99.58;99070.78;5034869;28;20283;-83
2021/08/22 04:16:28;;;;;;;2.45;1.85;;;;;;;16.04;99.78;99084.13;5035224;28;20412;-83
2021/08/22 04:18:55;;;;;;;5.63;2.70;;;;;;;16.10;100.00;99094.19;5019269;28;20050;-83
2021/08/22 04:21:23;;;;;;;3.55;2.40;;;;;;;16.01;99.76;99084.56;5015254;28;20061;-83
2021/08/22 04:23:50;;;;;;;7.60;2.60;;;;;;;15.97;100.00;99091.56;5015192;28;20514;-83
2021/08/22 04:26:17;;;;;;;5.97;2.65;;;;;;;15.84;100.00;99076.88;5015186;28;20459;-83
2021/08/22 04:28:44;;;;;;;7.95;2.92;;;;;;;16.02;100.00;99089.00;5020172;28;20046;-83
2021/08/22 04:31:10;;;;;;;3.65;2.70;;;;;;;16.04;100.00;99098.66;5015304;28;20058;-83
2021/08/22 04:33:37;;;;;;;7.38;2.70;;;;;;;16.05;100.00;99091.28;5014922;28;20046;-83
2021/08/22 04:36:05;;;;;;;6.20;3.05;;;;;;;16.05;99.67;99085.81;5015529;28;20041;-83
2021/08/22 04:38:35;;;;;;;4.15;2.42;;;;;;;16.06;99.93;99095.69;5015530;28;20456;-83
2021/08/22 04:41:02;;;;;;;4.07;2.63;;;;;;;16.00;100.00;99088.38;5015399;28;20061;-84
2021/08/22 04:43:29;;;;;;;3.63;2.58;;;;;;;15.97;100.00;99092.38;5014991;28;20057;-83
2021/08/22 04:45:55;;;;;;;6.05;2.88;;;;;;;15.90;100.00;99089.69;5022126;28;20053;-83
2021/08/22 04:48:22;;;;;;;4.78;2.45;;;;;;;15.93;100.00;99085.69;5014973;28;20054;-83
2021/08/22 04:50:49;;;;;;;4.68;2.63;;;;;;;16.02;100.00;99089.00;5019784;28;20053;-83
2021/08/22 04:53:16;;;;;;;5.75;2.88;;;;;;;16.16;100.00;99098.78;5029504;28;20112;-84
2021/08/22 04:55:44;;;;;;;6.85;3.03;;;;;;;16.18;100.00;99106.78;5014963;28;20100;-83
2021/08/22 04:58:10;;;;;;;5.03;2.90;;;;;;;16.14;100.00;99100.94;5015182;28;20050;-83
2021/08/22 05:00:37;;;;;;;8.75;3.75;;;;;;;16.21;100.00;99098.97;5039706;28;20232;-83
2021/08/22 05:03:04;;;;;;;4.70;3.05;;;;;;;16.32;100.00;99091.06;5044440;28;20099;-84
2021/08/22 05:05:31;;;;;;;5.03;2.35;;;;;;;16.44;100.00;99111.25;5034519;28;20452;-83
2021/08/22 05:10:51;;;;;;;3.78;2.60;;;;;;;16.62;100.00;99093.97;5031634;28;20739;-83
2021/08/22 05:13:17;;;;;;;4.10;2.40;;;;;;;16.71;100.00;99111.81;5034163;28;20246;-83
2021/08/22 05:15:45;;;;;;;4.70;2.65;;;;;;;16.80;99.05;99107.72;5040124;28;20045;-83
2021/08/22 05:18:12;;;;;;;5.47;2.75;;;;;;;16.66;100.00;99103.41;5053855;28;20041;-83
2021/08/22 05:20:39;;;;;;;5.78;2.42;;;;;;;16.66;100.00;99100.66;5054142;28;20045;-82
2021/08/22 05:23:15;;;;;;;5.57;2.70;;;;;;;16.84;100.00;99116.31;5054250;28;20052;-83
2021/08/22 05:25:42;;;;;;;6.22;2.70;;;;;;;16.86;100.00;99119.69;5053584;28;20052;-84
2021/08/22 05:28:11;;;;;;;4.63;2.88;;;;;;;16.90;100.00;99120.94;5034898;28;20091;-84
2021/08/22 05:30:37;;;;;;;4.22;2.95;;;;;;;16.83;100.00;99120.16;5033809;28;20053;-83
2021/08/22 05:33:05;;;;;;;6.50;2.83;;;;;;;16.96;99.93;99120.03;5034783;28;20095;-84
2021/08/22 05:35:32;;;;;;;4.18;2.70;;;;;;;16.88;98.48;99105.78;5053664;28;20131;-83
2021/08/22 05:37:58;;;;;;;5.13;2.78;;;;;;;16.80;99.45;99102.22;5053863;28;20110;-83
2021/08/22 05:40:25;;;;;;;7.15;2.47;;;;;;;16.95;100.00;99121.13;5049051;28;20056;-83
2021/08/22 05:42:52;;;;;;;5.47;3.03;;;;;;;16.87;100.00;99118.66;5034700;28;20493;-84
2021/08/22 05:45:21;;;;;;;4.80;2.80;;;;;;;16.91;100.00;99133.59;5034672;28;20066;-85
2021/08/22 05:47:48;;;;;;;3.55;2.80;;;;;;;16.84;100.00;99123.72;5034133;28;20519;-84
2021/08/22 05:50:14;;;;;;;6.32;2.75;;;;;;;16.87;100.00;99113.16;5035038;28;20053;-83
2021/08/22 05:52:41;;;;;;;3.88;2.40;;;;;;;16.98;100.00;99128.03;5021469;28;20116;-83
2021/08/22 05:55:10;;;;;;;6.10;2.95;;;;;;;17.07;98.54;99129.44;5021906;28;20121;-81
2021/08/22 05:57:37;;;;;;;4.35;2.55;;;;;;;17.12;98.50;99113.09;5013181;28;20497;-83
2021/08/22 06:00:06;;;;;;;6.43;2.70;;;;;;;17.10;100.00;99114.38;5032639;28;20104;-84
2021/08/22 06:02:36;;;;;;;3.70;2.45;;;;;;;17.08;100.00;99108.28;5022470;28;20107;-84
2021/08/22 06:05:03;;;;;;;;;;;;;;;17.31;98.47;99129.56;5012209;28;20100;-84
2021/08/22 06:07:30;;;;;;;4.45;2.80;;;;;;;17.25;100.00;99117.63;5011651;28;20358;-84
2021/08/22 06:09:59;;;;;;;5.72;3.40;;;;;;;17.37;100.00;99130.56;5026381;28;20076;-84
2021/08/22 06:12:26;;;;;;;8.52;3.35;;;;;;;17.36;100.00;99135.22;5031743;28;20049;-84
2021/08/22 06:14:53;;;;;;;4.38;3.30;;;;;;;17.24;100.00;99118.66;5031046;28;20061;-84
2021/08/22 06:17:19;;;;;;;7.88;3.17;;;;;;;17.32;100.00;99123.00;5029163;28;20111;-84
2021/08/22 06:19:48;;;;;;;3.92;2.80;;;;;;;17.33;100.00;99119.22;5032182;28;20528;-84
2021/08/22 06:22:14;;;;;;;7.78;3.33;;;;;;;17.38;100.00;99127.59;5032588;28;20394;-85
2021/08/22 06:24:41;;;;;;;4.95;3.40;;;;;;;17.59;99.75;99117.19;5015211;28;20065;-84
2021/08/22 06:27:08;;;;;;;3.38;2.75;;;;;;;17.63;98.92;99113.75;5032594;28;20055;-84
2021/08/22 06:29:35;;;;;;;5.15;3.13;;;;;;;17.78;97.32;99112.47;5032360;28;20049;-84
2021/08/22 06:32:01;;;;;;;3.85;2.80;;;;;;;17.79;96.88;99108.66;5032861;28;20053;-84
2021/08/22 06:34:28;;;;;;;7.68;3.30;;;;;;;17.87;96.19;99102.84;5032207;28;20413;-84
2021/08/22 06:36:56;;;;;;;3.78;2.75;;;;;;;17.97;96.68;99116.88;5030871;28;20457;-84
2021/08/22 06:39:23;;;;;;;5.82;3.03;;;;;;;17.80;96.26;99097.41;5031787;28;20045;-84
2021/08/22 06:41:50;;;;;;;6.03;3.40;;;;;;;17.97;97.97;99113.28;5031487;28;20053;-84
2021/08/22 06:44:17;;;;;;;5.10;2.85;;;;;;;17.90;98.52;99123.53;5032012;28;20517;-84
2021/08/22 06:46:44;;;;;;;4.78;3.15;;;;;;;18.06;97.92;99108.28;5032267;28;20049;-84
2021/08/22 06:49:10;;;;;;;7.97;3.58;;;;;;;18.15;97.73;99120.63;5032609;28;20045;-85
2021/08/22 06:51:38;;;;;;;5.43;3.20;;;;;;;18.19;96.90;99100.66;5032311;28;20457;-84
2021/08/22 06:54:06;;;;;;;3.63;2.63;;;;;;;18.29;97.78;99108.34;5031719;28;20042;-85
2021/08/22 06:56:33;;;;;;;6.65;3.13;;;;;;;18.68;96.01;99111.50;5030652;28;20045;-85
2021/08/22 06:59:00;;;;;;;5.38;3.20;;;;;;;18.84;94.89;99106.34;5012665;28;20046;-85
2021/08/22 07:01:26;;;;;;;5.50;3.25;;;;;;;18.81;96.20;99118.66;5012653;28;20054;-85
2021/08/22 07:03:54;;;;;;;6.38;3.50;;;;;;;18.67;95.11;99109.00;5012079;28;20445;-85
2021/08/22 07:06:20;;;;;;;6.82;3.40;;;;;;;18.57;95.90;99117.81;5012426;28;20064;-84
2021/08/22 07:08:47;;;;;;;6.53;3.17;;;;;;;18.51;95.87;99122.34;5012647;28;20176;-84
2021/08/22 07:11:15;;;;;;;5.20;3.35;;;;;;;18.54;96.29;99119.13;5011987;28;20050;-85
2021/08/22 07:13:42;;;;;;;6.43;3.67;;;;;;;18.52;97.35;99103.94;5016502;28;20054;-84
2021/08/22 07:16:09;;;;;;;7.40;3.78;;;;;;;18.61;97.76;99107.16;5029961;28;20053;-85
2021/08/22 07:18:36;;;;;;;6.65;3.90;;;;;;;18.71;97.93;99119.28;5030191;28;20107;-83
2021/08/22 07:21:04;;;;;;;8.70;4.60;;;;;;;18.51;98.84;99116.84;5029513;28;20060;-89
2021/08/22 07:23:31;;;;;;;6.22;3.83;;;;;;;18.45;98.84;99103.22;5031853;28;20046;-83
2021/08/22 07:25:58;;;;;;;6.70;3.63;;;;;;;18.44;97.54;99118.91;5032000;28;20045;-83
2021/08/22 07:28:26;;;;;;;5.55;3.67;;;;;;;18.45;98.59;99120.56;5031583;28;20045;-83
2021/08/22 07:30:53;;;;;;;5.28;3.63;;;;;;;18.46;96.91;99107.66;5039555;28;20060;-83
2021/08/22 07:33:20;;;;;;;11.70;4.30;;;;;;;18.69;97.87;99124.16;5027181;28;20132;-82
2021/08/22 07:35:47;;;;;;;4.30;3.50;;;;;;;18.91;96.72;99107.09;5011549;28;20058;-82
2021/08/22 07:38:13;;;;;;;6.55;4.13;;;;;;;18.94;97.69;99109.38;5011601;28;20050;-82
2021/08/22 07:40:40;;;;;;;6.95;4.28;;;;;;;19.09;96.76;99112.44;5012002;28;20049;-82
2021/08/22 07:43:07;;;;;;;7.32;3.90;;;;;;;19.24;94.90;99122.97;5011744;28;20046;-82
2021/08/22 07:45:35;;;;;;;5.65;3.80;;;;;;;19.10;92.54;99119.66;5011016;28;20105;-83
2021/08/22 07:48:02;;;;;;;6.10;3.65;;;;;;;19.02;92.60;99131.00;5021691;28;20436;-82
2021/08/22 07:50:28;;;;;;;5.75;3.92;;;;;;;18.78;94.32;99132.09;5032892;28;20503;-82
2021/08/22 07:52:56;;;;;;;8.45;3.78;;;;;;;18.77;96.13;99130.41;5014787;28;20445;-82
2021/08/22 07:55:23;;;;;;;7.07;4.43;;;;;;;18.64;99.17;99140.56;5015561;28;20042;-82
2021/08/22 07:57:49;;;;;;;14.20;4.22;;;;;;;18.65;98.81;99136.75;5015793;28;20053;-83
2021/08/22 08:00:16;;;;;;;7.53;4.70;;;;;;;18.55;99.60;99140.09;5015122;28;20045;-82
2021/08/22 08:02:45;;;;;;;6.40;4.43;;;;;;;18.48;98.89;99127.50;5015717;28;20061;-82
2021/08/22 08:05:12;;;;;;;9.73;4.15;;;;;;;18.73;99.51;99138.31;5054531;28;20052;-82
2021/08/22 08:07:39;;;;;;;8.93;4.20;;;;;;;18.92;99.00;99144.56;5043851;28;20324;-81
2021/08/22 08:10:07;;;;;;;6.47;4.28;;;;;;;19.12;96.33;99127.66;5016376;28;20379;-82
2021/08/22 08:12:34;;;;;;;7.57;4.00;;;;;;;19.37;95.31;99138.38;5015425;28;20050;-82
2021/08/22 08:15:01;;;;;;;4.82;4.03;;;;;;;19.37;95.55;99129.28;5015128;28;20441;-82
2021/08/22 08:17:28;;;;;;;5.15;4.35;;;;;;;19.37;96.74;99151.34;5014673;28;20045;-82
2021/08/22 08:19:56;;;;;;;6.32;3.72;;;;;;;19.36;96.94;99130.34;5015479;28;20069;-82
2021/08/22 08:22:23;;;;;;;8.02;4.22;;;;;;;19.40;98.50;99151.66;5032790;28;20049;-82
2021/08/22 08:24:50;;;;;;;8.63;4.15;;;;;;;19.18;96.01;99150.63;5029245;28;20127;-82
2021/08/22 08:27:17;;;;;;;8.50;4.20;;;;;;;19.23;98.53;99164.53;5029835;28;20175;-82
2021/08/22 08:29:44;;;;;;;8.65;4.00;;;;;;;19.23;98.80;99159.03;5034837;28;20111;-82
2021/08/22 08:32:11;;;;;;;7.38;4.88;;;;;;;19.27;97.58;99141.78;5029457;28;20115;-82
2021/08/22 08:34:38;;;;;;;6.53;4.00;;;;;;;19.45;95.98;99160.06;5033795;28;20041;-82
2021/08/22 08:37:06;;;;;;;4.85;3.55;;;;;;;19.24;96.14;99147.78;5034519;28;20053;-82
2021/08/22 08:39:33;;;;;;;5.45;3.30;;;;;;;19.07;97.38;99161.47;5034258;28;20464;-82
2021/08/22 08:42:15;;;;;;;6.32;3.90;;;;;;;19.15;96.79;99162.16;5032767;28;20080;-82
2021/08/22 08:44:42;;;;;;;6.88;3.75;;;;;;;19.21;96.74;99153.75;5034585;28;20107;-82
2021/08/22 08:47:10;;;;;;;7.97;4.05;;;;;;;19.36;97.27;99161.53;5034474;28;20053;-82
2021/08/22 08:49:39;;;;;;;6.15;3.95;;;;;;;19.49;96.30;99163.16;5014888;28;20045;-82
2021/08/22 08:52:10;;;;;;;10.73;3.92;;;;;;;19.43;94.65;99159.47;5014197;28;20058;-82
2021/08/22 08:54:37;;;;;;;6.25;3.60;;;;;;;19.60;94.19;99155.94;5030703;28;20084;-82
2021/08/22 08:57:04;;;;;;;8.43;3.20;;;;;;;19.98;94.49;99176.59;5033497;28;20627;-82
2021/08/22 08:59:33;;;;;;;5.85;4.18;;;;;;;20.25;94.20;99153.91;5031741;28;20444;-82
2021/08/22 09:02:00;;;;;;;6.30;3.80;;;;;;;20.51;93.42;99171.75;5034208;28;20057;-82
2021/08/22 09:04:31;;;;;;;5.45;3.38;;;;;;;20.63;91.60;99155.94;5029973;28;20061;-82
2021/08/22 09:07:35;;;;;;;4.50;3.35;;;;;;;21.04;88.68;99172.34;5014041;28;20046;-82
2021/08/22 09:10:38;;;;;;;5.32;3.35;;;;;;;21.10;86.01;99167.75;5029336;28;20042;-82
2021/08/22 09:13:41;;;;;;;4.10;3.60;;;;;;;21.37;87.45;99171.44;5009943;28;20049;-82
2021/08/22 09:16:56;;;;;;;6.63;4.40;;;;;;;21.07;87.77;99171.84;5033686;28;20045;-82
2021/08/22 09:20:00;;;;;;;7.28;4.10;;;;;;;20.78;88.06;99168.38;5028348;28;20049;-82
2021/08/22 09:23:15;;;;;;;6.45;3.97;;;;;;;20.61;86.81;99165.56;5019054;28;20398;-82
2021/08/22 09:26:33;;;;;;;7.05;4.35;;;;;;;20.57;91.08;99172.69;5014561;28;20046;-82
2021/08/22 09:29:33;;;;;;;11.35;5.13;;;;;;;20.19;89.01;99165.94;5023311;28;20057;-84
2021/08/22 09:32:45;;;;;;;5.90;4.35;;;;;;;20.13;91.62;99174.13;5033557;28;20565;-84
2021/08/22 09:35:49;;;;;;;6.35;4.07;;;;;;;20.15;90.66;99182.16;5032683;28;20045;-84
2021/08/22 09:38:49;;;;;;;7.47;4.55;;;;;;;20.03;89.45;99170.34;5024238;28;20060;-84
2021/08/22 09:41:49;;;;;;;5.90;4.32;;;;;;;20.01;89.07;99158.69;5014068;28;20049;-84
2021/08/22 09:44:46;;;;;;;6.22;4.53;;;;;;;20.02;89.41;99152.09;5030376;28;20057;-84
2021/08/22 09:47:49;;;;;;;5.78;4.30;;;;;;;20.03;89.72;99162.91;5033939;28;20095;-84
2021/08/22 09:50:53;;;;;;;9.05;4.60;;;;;;;20.26;89.17;99161.09;5016702;28;20049;-84
2021/08/22 09:53:57;;;;;;;8.20;4.95;;;;;;;20.41;89.08;99168.81;5013330;28;20053;-84
2021/08/22 09:57:01;;;;;;;9.30;4.65;;;;;;;20.56;89.53;99179.28;5013483;28;20053;-84
2021/08/22 10:00:16;;;;;;;6.88;4.40;;;;;;;20.56;88.54;99171.00;5018111;28;20048;-84
2021/08/22 10:03:07;;;;;;;9.35;4.50;;;;;;;20.72;88.20;99159.16;4972066;28;20046;-84
2021/08/22 10:06:05;;;;;;;7.15;4.60;;;;;;;21.08;86.66;99164.41;5018438;28;20042;-84
2021/08/22 10:08:40;;;;;;;10.23;4.72;;;;;;;20.97;87.61;99138.53;4998352;28;20123;-84
2021/08/22 10:11:10;;;;;;;6.28;4.55;;;;;;;20.99;84.79;99155.69;5032376;28;20508;-84
2021/08/22 10:13:38;;;;;;;6.80;4.55;;;;;;;21.11;85.60;99159.19;5032938;28;20079;-84
2021/08/22 10:16:05;;;;;;;6.80;4.43;;;;;;;21.06;85.85;99153.56;5024020;28;20445;-84
2021/08/22 10:18:35;;;;;;;9.05;4.55;;;;;;;21.16;85.20;99147.38;5012686;28;20506;-84
2021/08/22 10:21:05;;;;;;;8.93;4.40;;;;;;;20.94;86.18;99152.84;5015841;28;20049;-84
2021/08/22 10:23:55;;;;;;;;;;;;;;;20.96;85.40;99161.75;5031719;28;20060;-83
2021/08/22 10:26:58;;;;;;;8.52;4.30;;;;;;;20.79;86.16;99159.81;5032026;28;19921;-84
2021/08/22 10:29:30;;;;;;;7.15;4.78;;;;;;;20.65;86.29;99155.69;5032548;28;20045;-84
2021/08/22 10:32:14;;;;;;;8.05;4.38;;;;;;;20.35;86.58;99151.31;5042216;28;20463;-84
2021/08/22 10:34:44;;;;;;;7.47;4.53;;;;;;;20.35;87.65;99148.56;5051583;28;20040;-84
2021/08/22 10:37:27;;;;;;;10.43;5.03;;;;;;;20.30;88.81;99154.00;5032297;28;20081;-84
2021/08/22 10:39:56;;;;;;;8.02;4.70;;;;;;;20.32;88.68;99154.56;5032028;28;20069;-84
2021/08/22 10:42:24;;;;;;;5.90;4.75;;;;;;;20.31;90.09;99156.50;5031824;28;20128;-84
2021/08/22 10:44:51;;;;;;;9.20;5.45;;;;;;;20.45;88.81;99140.44;5032145;28;20481;-84
2021/08/22 10:47:41;;;;;;;9.35;4.50;;;;;;;20.20;86.62;99129.81;5031534;28;20041;-84
2021/08/22 10:50:09;;;;;;;8.30;4.95;;;;;;;20.12;88.64;99149.53;5051512;28;20191;-84
2021/08/22 10:52:37;;;;;;;6.45;4.70;;;;;;;20.12;87.98;99144.03;5045985;28;20064;-84
2021/08/22 10:55:32;;;;;;;7.07;5.25;;;;;;;20.10;88.31;99146.19;5012354;28;20486;-84
2021/08/22 10:58:02;;;;;;;6.53;4.55;;;;;;;20.06;88.13;99142.25;5012714;28;20096;-84
2021/08/22 11:00:29;;;;;;;;;;;;;;;20.07;89.30;99150.28;5012760;28;20057;-84
2021/08/22 11:02:57;;;;;;;8.82;5.35;;;;;;;20.02;88.17;99139.13;5012438;28;20020;-84
2021/08/22 11:05:26;;;;;;;6.95;4.75;;;;;;;19.74;88.23;99134.44;5027281;28;20202;-84
2021/08/22 11:07:55;;;;;;;6.03;4.30;;;;;;;19.65;88.36;99136.75;5012257;28;20046;-84
2021/08/22 11:10:23;;;;;;;5.45;3.90;;;;;;;19.52;88.54;99145.31;5021043;28;20050;-84
2021/08/22 11:12:52;;;;;;;6.03;4.15;;;;;;;19.40;89.34;99170.16;5032154;28;20081;-84
2021/08/22 11:15:24;;;;;;;6.35;3.78;;;;;;;19.16;89.98;99166.59;5030039;28;20562;-83
